<?xml version='1.0' encoding='UTF-8'?><gpx version="1.1" creator="JPX - https://github.com/jenetics/jpx" xmlns="http://www.topografix.com/GPX/1/1"><trk><trkseg><trkpt lat="45.7598172" lon="8.968504"><ele>382.0</ele><time>2026-04-28T15:30:02.817Z</time></trkpt><trkpt lat="45.7598478" lon="8.9685983"><ele>382.0</ele><time>2026-04-28T15:30:07.31Z</time></trkpt><trkpt lat="45.7598683" lon="8.9686989"><ele>382.0</ele><time>2026-04-28T15:30:12.203Z</time></trkpt><trkpt lat="45.7599097" lon="8.9687808"><ele>382.0</ele><time>2026-04-28T15:30:16.299Z</time></trkpt><trkpt lat="45.7599384" lon="8.9688642"><ele>382.0</ele><time>2026-04-28T15:30:20.32Z</time></trkpt><trkpt lat="45.7599425" lon="8.9689571"><ele>382.0</ele><time>2026-04-28T15:30:25.295Z</time></trkpt><trkpt lat="45.7599446" lon="8.9690473"><ele>382.0</ele><time>2026-04-28T15:30:35.288Z</time></trkpt><trkpt lat="45.7599761" lon="8.9691379"><ele>381.7142857142857</ele><time>2026-04-28T15:30:43.39Z</time></trkpt><trkpt lat="45.7599787" lon="8.9692366"><ele>381.4285714285714</ele><time>2026-04-28T15:30:48.324Z</time></trkpt><trkpt lat="45.7599551" lon="8.9693329"><ele>381.1428571428571</ele><time>2026-04-28T15:31:18.406Z</time></trkpt><trkpt lat="45.7599023" lon="8.9694035"><ele>380.8571428571429</ele><time>2026-04-28T15:31:24.298Z</time></trkpt><trkpt lat="45.7598407" lon="8.9694627"><ele>380.57142857142856</ele><time>2026-04-28T15:31:26.288Z</time></trkpt><trkpt lat="45.759777" lon="8.9694863"><ele>380.2857142857143</ele><time>2026-04-28T15:31:34.214Z</time></trkpt><trkpt lat="45.7597153" lon="8.9695095"><ele>380.0</ele><time>2026-04-28T15:31:42.398Z</time></trkpt><trkpt lat="45.7596515" lon="8.9695095"><ele>380.0</ele><time>2026-04-28T15:31:55.345Z</time></trkpt><trkpt lat="45.7595878" lon="8.9694752"><ele>380.0</ele><time>2026-04-28T15:32:04.34Z</time></trkpt><trkpt lat="45.759522" lon="8.9694661"><ele>380.0</ele><time>2026-04-28T15:32:10.336Z</time></trkpt><trkpt lat="45.7594009" lon="8.9694933"><ele>380.0</ele><time>2026-04-28T15:32:25.338Z</time></trkpt><trkpt lat="45.7593628" lon="8.9695702"><ele>380.0</ele><time>2026-04-28T15:32:32.35Z</time></trkpt><trkpt lat="45.7593377" lon="8.9696817"><ele>380.0</ele><time>2026-04-28T15:32:41.289Z</time></trkpt><trkpt lat="45.7592741" lon="8.9697996"><ele>379.5</ele><time>2026-04-28T15:32:48.891Z</time></trkpt><trkpt lat="45.7592298" lon="8.9698893"><ele>379.0</ele><time>2026-04-28T15:32:54.288Z</time></trkpt><trkpt lat="45.7592062" lon="8.9700959"><ele>378.5</ele><time>2026-04-28T15:33:01.333Z</time></trkpt><trkpt lat="45.759226" lon="8.9701962"><ele>378.0</ele><time>2026-04-28T15:33:11.35Z</time></trkpt><trkpt lat="45.7592759" lon="8.9702606"><ele>377.5</ele><time>2026-04-28T15:33:21.382Z</time></trkpt><trkpt lat="45.7593616" lon="8.9702623"><ele>377.0</ele><time>2026-04-28T15:33:28.29Z</time></trkpt><trkpt lat="45.7594317" lon="8.9702455"><ele>376.1666666666667</ele><time>2026-04-28T15:33:30.181Z</time></trkpt><trkpt lat="45.7595151" lon="8.9702271"><ele>375.33333333333337</ele><time>2026-04-28T15:33:39.37Z</time></trkpt><trkpt lat="45.7595841" lon="8.9702095"><ele>374.5</ele><time>2026-04-28T15:33:50.291Z</time></trkpt><trkpt lat="45.7596938" lon="8.9701881"><ele>373.6666666666667</ele><time>2026-04-28T15:33:52.231Z</time></trkpt><trkpt lat="45.7597646" lon="8.9701712"><ele>372.8333333333333</ele><time>2026-04-28T15:33:59.303Z</time></trkpt><trkpt lat="45.7598455" lon="8.9701658"><ele>372.0</ele><time>2026-04-28T15:34:05.9Z</time></trkpt><trkpt lat="45.7599151" lon="8.9701685"><ele>372.0</ele><time>2026-04-28T15:34:08.06Z</time></trkpt><trkpt lat="45.7599814" lon="8.9701799"><ele>372.0</ele><time>2026-04-28T15:34:14.31Z</time></trkpt><trkpt lat="45.7600434" lon="8.9701566"><ele>372.0</ele><time>2026-04-28T15:34:25.344Z</time></trkpt><trkpt lat="45.7601506" lon="8.9701035"><ele>372.0</ele><time>2026-04-28T15:34:26.426Z</time></trkpt><trkpt lat="45.7602122" lon="8.9700748"><ele>372.0</ele><time>2026-04-28T15:34:30.349Z</time></trkpt><trkpt lat="45.7602872" lon="8.9700679"><ele>372.0</ele><time>2026-04-28T15:34:34.359Z</time></trkpt><trkpt lat="45.7604766" lon="8.9700544"><ele>373.5</ele><time>2026-04-28T15:34:45.358Z</time></trkpt><trkpt lat="45.7605451" lon="8.9700301"><ele>375.0</ele><time>2026-04-28T15:34:50.59Z</time></trkpt><trkpt lat="45.7606971" lon="8.9699972"><ele>376.5</ele><time>2026-04-28T15:34:57.976Z</time></trkpt><trkpt lat="45.7607617" lon="8.9699443"><ele>378.0</ele><time>2026-04-28T15:35:05.377Z</time></trkpt><trkpt lat="45.7608145" lon="8.9698765"><ele>379.5</ele><time>2026-04-28T15:35:13.391Z</time></trkpt><trkpt lat="45.7608809" lon="8.9698335"><ele>381.0</ele><time>2026-04-28T15:35:20.248Z</time></trkpt><trkpt lat="45.7609699" lon="8.9697013"><ele>381.3333333333333</ele><time>2026-04-28T15:35:26.289Z</time></trkpt><trkpt lat="45.7610217" lon="8.9696404"><ele>381.6666666666667</ele><time>2026-04-28T15:35:32.328Z</time></trkpt><trkpt lat="45.7610831" lon="8.9696121"><ele>382.0</ele><time>2026-04-28T15:35:38.287Z</time></trkpt><trkpt lat="45.7611456" lon="8.9695945"><ele>382.33333333333337</ele><time>2026-04-28T15:35:44.209Z</time></trkpt><trkpt lat="45.7613253" lon="8.9695618"><ele>382.6666666666667</ele><time>2026-04-28T15:35:57.278Z</time></trkpt><trkpt lat="45.7613943" lon="8.9695621"><ele>383.0</ele><time>2026-04-28T15:36:03.376Z</time></trkpt><trkpt lat="45.7615641" lon="8.9695656"><ele>383.2</ele><time>2026-04-28T15:36:09.333Z</time></trkpt><trkpt lat="45.7617217" lon="8.9696608"><ele>383.4</ele><time>2026-04-28T15:36:21.288Z</time></trkpt><trkpt lat="45.7617913" lon="8.969687"><ele>383.59999999999997</ele><time>2026-04-28T15:36:25.288Z</time></trkpt><trkpt lat="45.7618655" lon="8.9696792"><ele>383.79999999999995</ele><time>2026-04-28T15:36:30.299Z</time></trkpt><trkpt lat="45.7619305" lon="8.9696757"><ele>384.0</ele><time>2026-04-28T15:36:33.289Z</time></trkpt><trkpt lat="45.7619979" lon="8.9696831"><ele>384.8333333333333</ele><time>2026-04-28T15:36:36.378Z</time></trkpt><trkpt lat="45.7620794" lon="8.9696777"><ele>385.66666666666663</ele><time>2026-04-28T15:36:40.464Z</time></trkpt><trkpt lat="45.762135" lon="8.9696297"><ele>386.5</ele><time>2026-04-28T15:36:43.558Z</time></trkpt><trkpt lat="45.7622029" lon="8.9696113"><ele>387.3333333333333</ele><time>2026-04-28T15:36:48.721Z</time></trkpt><trkpt lat="45.762307" lon="8.9695242"><ele>388.16666666666663</ele><time>2026-04-28T15:36:55.091Z</time></trkpt><trkpt lat="45.7623674" lon="8.9694822"><ele>389.0</ele><time>2026-04-28T15:37:02.219Z</time></trkpt><trkpt lat="45.7624343" lon="8.9694908"><ele>389.0</ele><time>2026-04-28T15:37:12.37Z</time></trkpt><trkpt lat="45.7626066" lon="8.9694731"><ele>389.0</ele><time>2026-04-28T15:37:23.9Z</time></trkpt><trkpt lat="45.7626768" lon="8.969449"><ele>389.0</ele><time>2026-04-28T15:37:28.291Z</time></trkpt><trkpt lat="45.7627508" lon="8.9694594"><ele>389.0</ele><time>2026-04-28T15:37:35.289Z</time></trkpt><trkpt lat="45.7628139" lon="8.9694339"><ele>389.0</ele><time>2026-04-28T15:37:40.299Z</time></trkpt><trkpt lat="45.7629346" lon="8.9693166"><ele>389.5714285714286</ele><time>2026-04-28T15:37:42.288Z</time></trkpt><trkpt lat="45.763008" lon="8.9692621"><ele>390.1428571428571</ele><time>2026-04-28T15:37:46.287Z</time></trkpt><trkpt lat="45.7630742" lon="8.9692182"><ele>390.7142857142857</ele><time>2026-04-28T15:37:50.152Z</time></trkpt><trkpt lat="45.7631325" lon="8.9691723"><ele>391.28571428571433</ele><time>2026-04-28T15:37:55.382Z</time></trkpt><trkpt lat="45.7631902" lon="8.9691319"><ele>391.8571428571429</ele><time>2026-04-28T15:37:58.288Z</time></trkpt><trkpt lat="45.7632587" lon="8.9690702"><ele>392.42857142857144</ele><time>2026-04-28T15:38:03.295Z</time></trkpt><trkpt lat="45.7633187" lon="8.9690338"><ele>393.0</ele><time>2026-04-28T15:38:08.288Z</time></trkpt><trkpt lat="45.7633883" lon="8.9689959"><ele>393.0</ele><time>2026-04-28T15:38:14.21Z</time></trkpt><trkpt lat="45.7634494" lon="8.9689604"><ele>393.0</ele><time>2026-04-28T15:38:19.417Z</time></trkpt><trkpt lat="45.7635131" lon="8.9689137"><ele>393.0</ele><time>2026-04-28T15:38:24.578Z</time></trkpt><trkpt lat="45.7635741" lon="8.968879"><ele>393.0</ele><time>2026-04-28T15:38:30.754Z</time></trkpt><trkpt lat="45.7636433" lon="8.9688472"><ele>393.0</ele><time>2026-04-28T15:38:41.906Z</time></trkpt><trkpt lat="45.7637842" lon="8.9687235"><ele>393.0</ele><time>2026-04-28T15:38:50.072Z</time></trkpt><trkpt lat="45.7638411" lon="8.9686641"><ele>393.1666666666667</ele><time>2026-04-28T15:38:53.19Z</time></trkpt><trkpt lat="45.7638829" lon="8.9685589"><ele>393.33333333333337</ele><time>2026-04-28T15:38:57.331Z</time></trkpt><trkpt lat="45.7639254" lon="8.9684809"><ele>393.5</ele><time>2026-04-28T15:39:00.286Z</time></trkpt><trkpt lat="45.7639584" lon="8.9684016"><ele>393.6666666666667</ele><time>2026-04-28T15:39:03.247Z</time></trkpt><trkpt lat="45.7639993" lon="8.9683213"><ele>393.83333333333337</ele><time>2026-04-28T15:39:08.389Z</time></trkpt><trkpt lat="45.7640934" lon="8.968285"><ele>394.0</ele><time>2026-04-28T15:39:15.4Z</time></trkpt><trkpt lat="45.7641704" lon="8.9682537"><ele>394.00000000000006</ele><time>2026-04-28T15:39:24.644Z</time></trkpt><trkpt lat="45.7642354" lon="8.9682844"><ele>394.0</ele><time>2026-04-28T15:39:30.128Z</time></trkpt><trkpt lat="45.7643058" lon="8.9683241"><ele>394.0</ele><time>2026-04-28T15:39:37.387Z</time></trkpt><trkpt lat="45.7643628" lon="8.9683721"><ele>394.0</ele><time>2026-04-28T15:39:42.313Z</time></trkpt><trkpt lat="45.7644762" lon="8.9684948"><ele>394.00000000000006</ele><time>2026-04-28T15:39:50.39Z</time></trkpt><trkpt lat="45.7645105" lon="8.9685836"><ele>394.0</ele><time>2026-04-28T15:39:55.671Z</time></trkpt><trkpt lat="45.7645958" lon="8.9687329"><ele>395.1666666666667</ele><time>2026-04-28T15:40:06.27Z</time></trkpt><trkpt lat="45.7646403" lon="8.9688028"><ele>396.33333333333337</ele><time>2026-04-28T15:40:12.604Z</time></trkpt><trkpt lat="45.7646905" lon="8.968862"><ele>397.5</ele><time>2026-04-28T15:40:18.81Z</time></trkpt><trkpt lat="45.7647278" lon="8.9689507"><ele>398.66666666666663</ele><time>2026-04-28T15:40:26.173Z</time></trkpt><trkpt lat="45.7647967" lon="8.9690994"><ele>399.8333333333333</ele><time>2026-04-28T15:40:33.296Z</time></trkpt><trkpt lat="45.764843" lon="8.9691727"><ele>401.0</ele><time>2026-04-28T15:40:38.337Z</time></trkpt><trkpt lat="45.7649144" lon="8.9693044"><ele>402.3333333333333</ele><time>2026-04-28T15:40:45.356Z</time></trkpt><trkpt lat="45.7649543" lon="8.9693872"><ele>403.66666666666663</ele><time>2026-04-28T15:40:50.55Z</time></trkpt><trkpt lat="45.7649966" lon="8.9694603"><ele>405.0</ele><time>2026-04-28T15:40:56.814Z</time></trkpt><trkpt lat="45.7650669" lon="8.9695644"><ele>406.33333333333337</ele><time>2026-04-28T15:41:02.079Z</time></trkpt><trkpt lat="45.765122" lon="8.9696353"><ele>407.6666666666667</ele><time>2026-04-28T15:41:08.419Z</time></trkpt><trkpt lat="45.7651904" lon="8.9696947"><ele>409.0</ele><time>2026-04-28T15:41:12.288Z</time></trkpt><trkpt lat="45.76525" lon="8.9697519"><ele>409.0</ele><time>2026-04-28T15:41:17.389Z</time></trkpt><trkpt lat="45.7652945" lon="8.9698164"><ele>409.0</ele><time>2026-04-28T15:41:22.332Z</time></trkpt><trkpt lat="45.7653532" lon="8.9700022"><ele>409.0</ele><time>2026-04-28T15:41:30.292Z</time></trkpt><trkpt lat="45.7654003" lon="8.9700866"><ele>409.0</ele><time>2026-04-28T15:41:36.581Z</time></trkpt><trkpt lat="45.7654411" lon="8.9701743"><ele>409.0</ele><time>2026-04-28T15:41:42.143Z</time></trkpt><trkpt lat="45.7655489" lon="8.9703451"><ele>409.0</ele><time>2026-04-28T15:41:55.328Z</time></trkpt><trkpt lat="45.7655835" lon="8.9705562"><ele>409.0</ele><time>2026-04-28T15:42:21.336Z</time></trkpt><trkpt lat="45.7656345" lon="8.970746"><ele>409.0</ele><time>2026-04-28T15:42:38.292Z</time></trkpt><trkpt lat="45.7656584" lon="8.970835"><ele>409.0</ele><time>2026-04-28T15:42:45.288Z</time></trkpt><trkpt lat="45.7656803" lon="8.9709309"><ele>409.0</ele><time>2026-04-28T15:42:53.349Z</time></trkpt><trkpt lat="45.7657189" lon="8.9710109"><ele>409.0</ele><time>2026-04-28T15:42:59.373Z</time></trkpt><trkpt lat="45.7657625" lon="8.9710851"><ele>409.0</ele><time>2026-04-28T15:43:05.29Z</time></trkpt><trkpt lat="45.7658183" lon="8.9711574"><ele>409.0</ele><time>2026-04-28T15:43:10.451Z</time></trkpt><trkpt lat="45.7658794" lon="8.9712006"><ele>409.0</ele><time>2026-04-28T15:43:15.298Z</time></trkpt><trkpt lat="45.7659468" lon="8.9712341"><ele>409.0</ele><time>2026-04-28T15:43:19.334Z</time></trkpt><trkpt lat="45.7660059" lon="8.9712871"><ele>409.0</ele><time>2026-04-28T15:43:25.288Z</time></trkpt><trkpt lat="45.7660731" lon="8.9713333"><ele>409.0</ele><time>2026-04-28T15:43:34.391Z</time></trkpt><trkpt lat="45.766137" lon="8.9713578"><ele>408.79999999999995</ele><time>2026-04-28T15:43:38.564Z</time></trkpt><trkpt lat="45.7663572" lon="8.9714281"><ele>408.59999999999997</ele><time>2026-04-28T15:43:57.332Z</time></trkpt><trkpt lat="45.7664217" lon="8.9714601"><ele>408.4</ele><time>2026-04-28T15:44:03.545Z</time></trkpt><trkpt lat="45.7664968" lon="8.9714195"><ele>408.2</ele><time>2026-04-28T15:44:07.602Z</time></trkpt><trkpt lat="45.7665619" lon="8.9713851"><ele>408.0</ele><time>2026-04-28T15:44:11.725Z</time></trkpt><trkpt lat="45.7666295" lon="8.9713539"><ele>408.0</ele><time>2026-04-28T15:44:16.745Z</time></trkpt><trkpt lat="45.7667081" lon="8.9713447"><ele>408.0</ele><time>2026-04-28T15:44:22.047Z</time></trkpt><trkpt lat="45.7667856" lon="8.9713455"><ele>408.0</ele><time>2026-04-28T15:44:26.165Z</time></trkpt><trkpt lat="45.766859" lon="8.9713429"><ele>408.0</ele><time>2026-04-28T15:44:30.343Z</time></trkpt><trkpt lat="45.7669234" lon="8.9713464"><ele>408.0</ele><time>2026-04-28T15:44:34.286Z</time></trkpt><trkpt lat="45.766989" lon="8.9713397"><ele>408.0</ele><time>2026-04-28T15:44:38.362Z</time></trkpt><trkpt lat="45.7670579" lon="8.9713681"><ele>408.0</ele><time>2026-04-28T15:44:47.412Z</time></trkpt><trkpt lat="45.7671233" lon="8.9713936"><ele>406.7142857142857</ele><time>2026-04-28T15:44:50.485Z</time></trkpt><trkpt lat="45.7671878" lon="8.9713952"><ele>405.42857142857144</ele><time>2026-04-28T15:44:54.689Z</time></trkpt><trkpt lat="45.7672671" lon="8.9713756"><ele>404.1428571428571</ele><time>2026-04-28T15:45:01.969Z</time></trkpt><trkpt lat="45.7673463" lon="8.971375"><ele>402.8571428571429</ele><time>2026-04-28T15:45:07.212Z</time></trkpt><trkpt lat="45.767412" lon="8.9713892"><ele>401.57142857142856</ele><time>2026-04-28T15:45:11.396Z</time></trkpt><trkpt lat="45.7674845" lon="8.9714031"><ele>400.2857142857143</ele><time>2026-04-28T15:45:16.611Z</time></trkpt><trkpt lat="45.7675634" lon="8.9713949"><ele>399.0</ele><time>2026-04-28T15:45:22.413Z</time></trkpt><trkpt lat="45.7676274" lon="8.9713918"><ele>398.2857142857143</ele><time>2026-04-28T15:45:25.335Z</time></trkpt><trkpt lat="45.7676954" lon="8.9713795"><ele>397.57142857142856</ele><time>2026-04-28T15:45:29.345Z</time></trkpt><trkpt lat="45.7677654" lon="8.971373"><ele>396.8571428571429</ele><time>2026-04-28T15:45:33.256Z</time></trkpt><trkpt lat="45.7678289" lon="8.9713649"><ele>396.1428571428571</ele><time>2026-04-28T15:45:37.321Z</time></trkpt><trkpt lat="45.7678977" lon="8.9713448"><ele>395.42857142857144</ele><time>2026-04-28T15:45:42.51Z</time></trkpt><trkpt lat="45.7679684" lon="8.9713374"><ele>394.7142857142857</ele><time>2026-04-28T15:45:47.773Z</time></trkpt><trkpt lat="45.7680361" lon="8.9713432"><ele>394.0</ele><time>2026-04-28T15:45:52.973Z</time></trkpt><trkpt lat="45.7681005" lon="8.9713639"><ele>394.0</ele><time>2026-04-28T15:45:58.215Z</time></trkpt><trkpt lat="45.7681706" lon="8.971375"><ele>394.0</ele><time>2026-04-28T15:46:02.41Z</time></trkpt><trkpt lat="45.7682374" lon="8.9713505"><ele>394.0</ele><time>2026-04-28T15:46:06.433Z</time></trkpt><trkpt lat="45.7683076" lon="8.9713595"><ele>394.0</ele><time>2026-04-28T15:46:10.675Z</time></trkpt><trkpt lat="45.7685121" lon="8.971321"><ele>394.0</ele><time>2026-04-28T15:46:26.337Z</time></trkpt><trkpt lat="45.7685801" lon="8.9713093"><ele>393.6666666666667</ele><time>2026-04-28T15:46:30.296Z</time></trkpt><trkpt lat="45.768651" lon="8.9712862"><ele>393.33333333333337</ele><time>2026-04-28T15:46:35.337Z</time></trkpt><trkpt lat="45.768721" lon="8.9712494"><ele>393.0</ele><time>2026-04-28T15:46:40.376Z</time></trkpt><trkpt lat="45.7688522" lon="8.9711721"><ele>392.66666666666663</ele><time>2026-04-28T15:46:46.354Z</time></trkpt><trkpt lat="45.7689041" lon="8.971121"><ele>392.3333333333333</ele><time>2026-04-28T15:46:52.544Z</time></trkpt><trkpt lat="45.768968" lon="8.9710729"><ele>392.0</ele><time>2026-04-28T15:46:57.831Z</time></trkpt><trkpt lat="45.7690363" lon="8.9710408"><ele>392.0</ele><time>2026-04-28T15:47:01.944Z</time></trkpt><trkpt lat="45.7691134" lon="8.9710143"><ele>392.0</ele><time>2026-04-28T15:47:04.989Z</time></trkpt><trkpt lat="45.7691847" lon="8.9709922"><ele>392.0</ele><time>2026-04-28T15:47:09.196Z</time></trkpt><trkpt lat="45.769249" lon="8.9709748"><ele>392.0</ele><time>2026-04-28T15:47:13.344Z</time></trkpt><trkpt lat="45.7693261" lon="8.970955"><ele>392.0</ele><time>2026-04-28T15:47:16.328Z</time></trkpt><trkpt lat="45.7693963" lon="8.9709195"><ele>392.0</ele><time>2026-04-28T15:47:20.461Z</time></trkpt><trkpt lat="45.7694686" lon="8.970885"><ele>392.0</ele><time>2026-04-28T15:47:24.748Z</time></trkpt><trkpt lat="45.7695389" lon="8.9708711"><ele>392.14285714285717</ele><time>2026-04-28T15:47:29.3Z</time></trkpt><trkpt lat="45.7696149" lon="8.9708637"><ele>392.2857142857143</ele><time>2026-04-28T15:47:33.31Z</time></trkpt><trkpt lat="45.7696824" lon="8.9708355"><ele>392.42857142857144</ele><time>2026-04-28T15:47:37.689Z</time></trkpt><trkpt lat="45.7697549" lon="8.9708007"><ele>392.57142857142856</ele><time>2026-04-28T15:47:41.957Z</time></trkpt><trkpt lat="45.7698316" lon="8.9707747"><ele>392.7142857142857</ele><time>2026-04-28T15:47:46.289Z</time></trkpt><trkpt lat="45.7698936" lon="8.9707519"><ele>392.8571428571429</ele><time>2026-04-28T15:47:51.297Z</time></trkpt><trkpt lat="45.7699539" lon="8.9707203"><ele>393.0</ele><time>2026-04-28T15:47:56.23Z</time></trkpt><trkpt lat="45.770016" lon="8.9706818"><ele>393.14285714285717</ele><time>2026-04-28T15:48:00.407Z</time></trkpt><trkpt lat="45.7700715" lon="8.9706179"><ele>393.2857142857143</ele><time>2026-04-28T15:48:05.674Z</time></trkpt><trkpt lat="45.7701413" lon="8.970572"><ele>393.42857142857144</ele><time>2026-04-28T15:48:10.83Z</time></trkpt><trkpt lat="45.7701873" lon="8.9705046"><ele>393.57142857142856</ele><time>2026-04-28T15:48:14.978Z</time></trkpt><trkpt lat="45.7702564" lon="8.9704494"><ele>393.7142857142857</ele><time>2026-04-28T15:48:20.256Z</time></trkpt><trkpt lat="45.7703153" lon="8.9704065"><ele>393.8571428571429</ele><time>2026-04-28T15:48:24.33Z</time></trkpt><trkpt lat="45.7703758" lon="8.9703587"><ele>394.0</ele><time>2026-04-28T15:48:28.303Z</time></trkpt><trkpt lat="45.7704389" lon="8.9702895"><ele>394.0</ele><time>2026-04-28T15:48:33.334Z</time></trkpt><trkpt lat="45.7704874" lon="8.9702176"><ele>394.0</ele><time>2026-04-28T15:48:38.286Z</time></trkpt><trkpt lat="45.7705545" lon="8.9701574"><ele>394.0</ele><time>2026-04-28T15:48:42.288Z</time></trkpt><trkpt lat="45.7706073" lon="8.9701038"><ele>394.0</ele><time>2026-04-28T15:48:46.29Z</time></trkpt><trkpt lat="45.7706673" lon="8.9700445"><ele>394.0</ele><time>2026-04-28T15:48:51.332Z</time></trkpt><trkpt lat="45.7707041" lon="8.969962"><ele>394.0</ele><time>2026-04-28T15:48:56.251Z</time></trkpt><trkpt lat="45.7707425" lon="8.9698711"><ele>394.0</ele><time>2026-04-28T15:49:01.299Z</time></trkpt><trkpt lat="45.7707844" lon="8.9698026"><ele>394.33333333333337</ele><time>2026-04-28T15:49:06.34Z</time></trkpt><trkpt lat="45.7708356" lon="8.9697382"><ele>394.6666666666667</ele><time>2026-04-28T15:49:11.287Z</time></trkpt><trkpt lat="45.7708969" lon="8.9696861"><ele>395.0</ele><time>2026-04-28T15:49:16.315Z</time></trkpt><trkpt lat="45.770947" lon="8.9696238"><ele>395.33333333333337</ele><time>2026-04-28T15:49:20.318Z</time></trkpt><trkpt lat="45.7709336" lon="8.9694559"><ele>395.6666666666667</ele><time>2026-04-28T15:49:23.297Z</time></trkpt><trkpt lat="45.7709664" lon="8.9693648"><ele>396.0</ele><time>2026-04-28T15:49:26.289Z</time></trkpt><trkpt lat="45.7710039" lon="8.9692894"><ele>394.8571428571429</ele><time>2026-04-28T15:49:30.165Z</time></trkpt><trkpt lat="45.7710577" lon="8.9692423"><ele>393.71428571428567</ele><time>2026-04-28T15:49:33.791Z</time></trkpt><trkpt lat="45.7711456" lon="8.9692103"><ele>392.57142857142856</ele><time>2026-04-28T15:49:38.37Z</time></trkpt><trkpt lat="45.7712107" lon="8.9692012"><ele>391.42857142857144</ele><time>2026-04-28T15:49:41.453Z</time></trkpt><trkpt lat="45.7712809" lon="8.969174"><ele>390.28571428571433</ele><time>2026-04-28T15:49:44.528Z</time></trkpt><trkpt lat="45.7713475" lon="8.9691378"><ele>389.1428571428571</ele><time>2026-04-28T15:49:48.479Z</time></trkpt><trkpt lat="45.7714097" lon="8.9691097"><ele>388.0</ele><time>2026-04-28T15:49:52.602Z</time></trkpt><trkpt lat="45.771474" lon="8.9690665"><ele>388.0</ele><time>2026-04-28T15:49:57.679Z</time></trkpt><trkpt lat="45.7715383" lon="8.9690409"><ele>388.0</ele><time>2026-04-28T15:50:01.753Z</time></trkpt><trkpt lat="45.7716109" lon="8.9690022"><ele>388.0</ele><time>2026-04-28T15:50:05.889Z</time></trkpt><trkpt lat="45.7716771" lon="8.9689774"><ele>388.0</ele><time>2026-04-28T15:50:09.968Z</time></trkpt><trkpt lat="45.7717458" lon="8.9689418"><ele>388.0</ele><time>2026-04-28T15:50:13.953Z</time></trkpt><trkpt lat="45.771815" lon="8.9689158"><ele>388.0</ele><time>2026-04-28T15:50:18.07Z</time></trkpt><trkpt lat="45.771886" lon="8.9688794"><ele>388.0</ele><time>2026-04-28T15:50:23.207Z</time></trkpt><trkpt lat="45.7719605" lon="8.9688726"><ele>388.2857142857143</ele><time>2026-04-28T15:50:28.277Z</time></trkpt><trkpt lat="45.7720293" lon="8.9688824"><ele>388.5714285714286</ele><time>2026-04-28T15:50:34.335Z</time></trkpt><trkpt lat="45.7720926" lon="8.9689402"><ele>388.8571428571429</ele><time>2026-04-28T15:50:40.293Z</time></trkpt><trkpt lat="45.7721645" lon="8.968963"><ele>389.1428571428571</ele><time>2026-04-28T15:50:43.289Z</time></trkpt><trkpt lat="45.7722207" lon="8.9690059"><ele>389.42857142857144</ele><time>2026-04-28T15:50:46.234Z</time></trkpt><trkpt lat="45.7722808" lon="8.9690741"><ele>389.7142857142857</ele><time>2026-04-28T15:50:49.333Z</time></trkpt><trkpt lat="45.7723395" lon="8.9691275"><ele>390.0</ele><time>2026-04-28T15:50:52.324Z</time></trkpt><trkpt lat="45.7723994" lon="8.9691911"><ele>390.0</ele><time>2026-04-28T15:50:56.335Z</time></trkpt><trkpt lat="45.7724777" lon="8.9692346"><ele>390.0</ele><time>2026-04-28T15:51:00.345Z</time></trkpt><trkpt lat="45.7725388" lon="8.9692961"><ele>390.0</ele><time>2026-04-28T15:51:05.274Z</time></trkpt><trkpt lat="45.7725941" lon="8.9693597"><ele>390.0</ele><time>2026-04-28T15:51:10.424Z</time></trkpt><trkpt lat="45.7726478" lon="8.9694358"><ele>390.0</ele><time>2026-04-28T15:51:15.288Z</time></trkpt><trkpt lat="45.7727006" lon="8.9695079"><ele>390.0</ele><time>2026-04-28T15:51:20.395Z</time></trkpt><trkpt lat="45.7727678" lon="8.9695594"><ele>390.2857142857143</ele><time>2026-04-28T15:51:26.342Z</time></trkpt><trkpt lat="45.7728281" lon="8.969602"><ele>390.57142857142856</ele><time>2026-04-28T15:51:32.311Z</time></trkpt><trkpt lat="45.7728796" lon="8.9696796"><ele>390.8571428571429</ele><time>2026-04-28T15:51:39.3Z</time></trkpt><trkpt lat="45.7729511" lon="8.969707"><ele>391.1428571428571</ele><time>2026-04-28T15:51:44.368Z</time></trkpt><trkpt lat="45.7730112" lon="8.9697598"><ele>391.42857142857144</ele><time>2026-04-28T15:51:50.591Z</time></trkpt><trkpt lat="45.7730437" lon="8.9698461"><ele>391.7142857142857</ele><time>2026-04-28T15:51:59.233Z</time></trkpt><trkpt lat="45.7730696" lon="8.9699377"><ele>392.0</ele><time>2026-04-28T15:52:04.419Z</time></trkpt><trkpt lat="45.7731209" lon="8.9700217"><ele>392.57142857142856</ele><time>2026-04-28T15:52:09.638Z</time></trkpt><trkpt lat="45.7731782" lon="8.9700631"><ele>393.1428571428571</ele><time>2026-04-28T15:52:13.749Z</time></trkpt><trkpt lat="45.7732301" lon="8.9701247"><ele>393.7142857142857</ele><time>2026-04-28T15:52:19.844Z</time></trkpt><trkpt lat="45.7732907" lon="8.9701531"><ele>394.2857142857143</ele><time>2026-04-28T15:52:25.206Z</time></trkpt><trkpt lat="45.7733586" lon="8.9701757"><ele>394.85714285714283</ele><time>2026-04-28T15:52:29.286Z</time></trkpt><trkpt lat="45.7734236" lon="8.970198"><ele>395.42857142857144</ele><time>2026-04-28T15:52:33.287Z</time></trkpt><trkpt lat="45.7734872" lon="8.9702208"><ele>396.0</ele><time>2026-04-28T15:52:39.296Z</time></trkpt><trkpt lat="45.7735797" lon="8.970214"><ele>396.0</ele><time>2026-04-28T15:52:52.289Z</time></trkpt><trkpt lat="45.773699" lon="8.9701944"><ele>396.0</ele><time>2026-04-28T15:52:55.75Z</time></trkpt><trkpt lat="45.7737801" lon="8.9701868"><ele>396.0</ele><time>2026-04-28T15:52:58.254Z</time></trkpt><trkpt lat="45.7738587" lon="8.9701801"><ele>396.0</ele><time>2026-04-28T15:53:01.273Z</time></trkpt><trkpt lat="45.7739175" lon="8.9701384"><ele>396.0</ele><time>2026-04-28T15:53:04.31Z</time></trkpt><trkpt lat="45.7739697" lon="8.970083"><ele>396.0</ele><time>2026-04-28T15:53:08.411Z</time></trkpt><trkpt lat="45.774014" lon="8.9699865"><ele>395.14285714285717</ele><time>2026-04-28T15:53:13.287Z</time></trkpt><trkpt lat="45.7740443" lon="8.9699042"><ele>394.2857142857143</ele><time>2026-04-28T15:53:16.353Z</time></trkpt><trkpt lat="45.7740664" lon="8.9698108"><ele>393.42857142857144</ele><time>2026-04-28T15:53:19.332Z</time></trkpt><trkpt lat="45.7740863" lon="8.9697074"><ele>392.57142857142856</ele><time>2026-04-28T15:53:23.144Z</time></trkpt><trkpt lat="45.7741148" lon="8.9696265"><ele>391.71428571428567</ele><time>2026-04-28T15:53:27.313Z</time></trkpt><trkpt lat="45.7741452" lon="8.9695403"><ele>390.85714285714283</ele><time>2026-04-28T15:53:31.375Z</time></trkpt><trkpt lat="45.7741807" lon="8.9694656"><ele>390.0</ele><time>2026-04-28T15:53:35.375Z</time></trkpt><trkpt lat="45.7742361" lon="8.9693876"><ele>390.0</ele><time>2026-04-28T15:53:40.302Z</time></trkpt><trkpt lat="45.774281" lon="8.9693206"><ele>390.0</ele><time>2026-04-28T15:53:45.209Z</time></trkpt><trkpt lat="45.7743328" lon="8.9692396"><ele>390.0</ele><time>2026-04-28T15:53:50.334Z</time></trkpt><trkpt lat="45.7743797" lon="8.9691703"><ele>390.0</ele><time>2026-04-28T15:53:55.371Z</time></trkpt><trkpt lat="45.7744316" lon="8.9691022"><ele>390.0</ele><time>2026-04-28T15:54:01.386Z</time></trkpt><trkpt lat="45.7744864" lon="8.9690244"><ele>390.0</ele><time>2026-04-28T15:54:06.313Z</time></trkpt><trkpt lat="45.7745348" lon="8.9689343"><ele>390.0</ele><time>2026-04-28T15:54:11.355Z</time></trkpt><trkpt lat="45.7745896" lon="8.968864"><ele>389.85714285714283</ele><time>2026-04-28T15:54:15.31Z</time></trkpt><trkpt lat="45.7746498" lon="8.9688084"><ele>389.71428571428567</ele><time>2026-04-28T15:54:20.292Z</time></trkpt><trkpt lat="45.7747087" lon="8.9687539"><ele>389.57142857142856</ele><time>2026-04-28T15:54:24.936Z</time></trkpt><trkpt lat="45.7747657" lon="8.9686927"><ele>389.42857142857144</ele><time>2026-04-28T15:54:28.91Z</time></trkpt><trkpt lat="45.7748156" lon="8.9686297"><ele>389.2857142857143</ele><time>2026-04-28T15:54:32.999Z</time></trkpt><trkpt lat="45.7748752" lon="8.9685899"><ele>389.14285714285717</ele><time>2026-04-28T15:54:37.111Z</time></trkpt><trkpt lat="45.7749359" lon="8.9685302"><ele>389.0</ele><time>2026-04-28T15:54:42.13Z</time></trkpt><trkpt lat="45.7749999" lon="8.9684665"><ele>389.0</ele><time>2026-04-28T15:54:47.231Z</time></trkpt><trkpt lat="45.7750654" lon="8.9684113"><ele>389.0</ele><time>2026-04-28T15:54:52.309Z</time></trkpt><trkpt lat="45.7751303" lon="8.9683726"><ele>389.0</ele><time>2026-04-28T15:54:57.303Z</time></trkpt><trkpt lat="45.7751858" lon="8.9683283"><ele>389.0</ele><time>2026-04-28T15:55:01.496Z</time></trkpt><trkpt lat="45.775242" lon="8.9682873"><ele>389.0</ele><time>2026-04-28T15:55:05.518Z</time></trkpt><trkpt lat="45.7753091" lon="8.9682454"><ele>389.0</ele><time>2026-04-28T15:55:10.631Z</time></trkpt><trkpt lat="45.7753753" lon="8.9681946"><ele>389.0</ele><time>2026-04-28T15:55:15.715Z</time></trkpt><trkpt lat="45.7754375" lon="8.9681323"><ele>389.14285714285717</ele><time>2026-04-28T15:55:20.911Z</time></trkpt><trkpt lat="45.7754945" lon="8.9680905"><ele>389.2857142857143</ele><time>2026-04-28T15:55:24.992Z</time></trkpt><trkpt lat="45.775539" lon="8.9680166"><ele>389.42857142857144</ele><time>2026-04-28T15:55:29.075Z</time></trkpt><trkpt lat="45.7756038" lon="8.9679481"><ele>389.57142857142856</ele><time>2026-04-28T15:55:33.189Z</time></trkpt><trkpt lat="45.7756738" lon="8.9678964"><ele>389.71428571428567</ele><time>2026-04-28T15:55:37.35Z</time></trkpt><trkpt lat="45.7757325" lon="8.9678477"><ele>389.85714285714283</ele><time>2026-04-28T15:55:41.304Z</time></trkpt><trkpt lat="45.7757853" lon="8.967786"><ele>390.0</ele><time>2026-04-28T15:55:46.288Z</time></trkpt><trkpt lat="45.7758397" lon="8.9677233"><ele>390.0</ele><time>2026-04-28T15:55:51.246Z</time></trkpt><trkpt lat="45.7759029" lon="8.9676696"><ele>390.0</ele><time>2026-04-28T15:55:57.437Z</time></trkpt><trkpt lat="45.7759546" lon="8.967613"><ele>390.0</ele><time>2026-04-28T15:56:01.51Z</time></trkpt><trkpt lat="45.7760208" lon="8.967572"><ele>390.0</ele><time>2026-04-28T15:56:06.033Z</time></trkpt><trkpt lat="45.7760913" lon="8.9675475"><ele>390.0</ele><time>2026-04-28T15:56:11.053Z</time></trkpt><trkpt lat="45.7761594" lon="8.9674937"><ele>390.0</ele><time>2026-04-28T15:56:16.094Z</time></trkpt><trkpt lat="45.7762142" lon="8.9674165"><ele>390.0</ele><time>2026-04-28T15:56:20.157Z</time></trkpt><trkpt lat="45.7762829" lon="8.9673592"><ele>390.57142857142856</ele><time>2026-04-28T15:56:24.187Z</time></trkpt><trkpt lat="45.7763401" lon="8.9673084"><ele>391.1428571428571</ele><time>2026-04-28T15:56:28.233Z</time></trkpt><trkpt lat="45.7764053" lon="8.9672543"><ele>391.7142857142857</ele><time>2026-04-28T15:56:33.316Z</time></trkpt><trkpt lat="45.7764708" lon="8.9672017"><ele>392.2857142857143</ele><time>2026-04-28T15:56:38.332Z</time></trkpt><trkpt lat="45.7765304" lon="8.9671447"><ele>392.8571428571429</ele><time>2026-04-28T15:56:43.392Z</time></trkpt><trkpt lat="45.7765878" lon="8.9670892"><ele>393.42857142857144</ele><time>2026-04-28T15:56:48.471Z</time></trkpt><trkpt lat="45.7766402" lon="8.967025"><ele>394.0</ele><time>2026-04-28T15:56:53.57Z</time></trkpt><trkpt lat="45.7766926" lon="8.9669671"><ele>394.0</ele><time>2026-04-28T15:56:58.671Z</time></trkpt><trkpt lat="45.7767346" lon="8.9668856"><ele>394.0</ele><time>2026-04-28T15:57:04.71Z</time></trkpt><trkpt lat="45.7767613" lon="8.9667971"><ele>394.0</ele><time>2026-04-28T15:57:09.799Z</time></trkpt><trkpt lat="45.7768125" lon="8.9667317"><ele>394.0</ele><time>2026-04-28T15:57:20.84Z</time></trkpt><trkpt lat="45.7768808" lon="8.9666653"><ele>394.0</ele><time>2026-04-28T15:57:24.87Z</time></trkpt><trkpt lat="45.7769308" lon="8.9666075"><ele>394.0</ele><time>2026-04-28T15:57:27.928Z</time></trkpt><trkpt lat="45.7769658" lon="8.9665281"><ele>394.0</ele><time>2026-04-28T15:57:33.987Z</time></trkpt><trkpt lat="45.7770007" lon="8.9664521"><ele>394.0</ele><time>2026-04-28T15:57:50.138Z</time></trkpt><trkpt lat="45.7769886" lon="8.9663573"><ele>394.0</ele><time>2026-04-28T15:57:55.178Z</time></trkpt><trkpt lat="45.7769848" lon="8.9662513"><ele>394.0</ele><time>2026-04-28T15:58:01.21Z</time></trkpt><trkpt lat="45.776972" lon="8.9661463"><ele>394.0</ele><time>2026-04-28T15:58:05.279Z</time></trkpt><trkpt lat="45.7769445" lon="8.9660571"><ele>394.0</ele><time>2026-04-28T15:58:08.353Z</time></trkpt><trkpt lat="45.776895" lon="8.9659706"><ele>394.0</ele><time>2026-04-28T15:58:12.314Z</time></trkpt><trkpt lat="45.7768455" lon="8.965911"><ele>394.0</ele><time>2026-04-28T15:58:17.355Z</time></trkpt><trkpt lat="45.7768458" lon="8.9657983"><ele>394.14285714285717</ele><time>2026-04-28T15:58:22.195Z</time></trkpt><trkpt lat="45.7768311" lon="8.9657031"><ele>394.28571428571433</ele><time>2026-04-28T15:58:28.287Z</time></trkpt><trkpt lat="45.7767819" lon="8.9656275"><ele>394.42857142857144</ele><time>2026-04-28T15:58:34.312Z</time></trkpt><trkpt lat="45.7767571" lon="8.9655341"><ele>394.57142857142856</ele><time>2026-04-28T15:58:42.29Z</time></trkpt><trkpt lat="45.7767026" lon="8.965473"><ele>394.7142857142857</ele><time>2026-04-28T15:58:47.288Z</time></trkpt><trkpt lat="45.7766667" lon="8.9653801"><ele>394.85714285714283</ele><time>2026-04-28T15:58:52.3Z</time></trkpt><trkpt lat="45.7766493" lon="8.9652792"><ele>395.0</ele><time>2026-04-28T15:58:57.226Z</time></trkpt><trkpt lat="45.7766146" lon="8.9651808"><ele>395.0</ele><time>2026-04-28T15:59:03.299Z</time></trkpt><trkpt lat="45.776581" lon="8.9650921"><ele>395.0</ele><time>2026-04-28T15:59:08.27Z</time></trkpt><trkpt lat="45.7765609" lon="8.9649998"><ele>395.0</ele><time>2026-04-28T15:59:12.288Z</time></trkpt><trkpt lat="45.7765443" lon="8.9648802"><ele>395.0</ele><time>2026-04-28T15:59:16.36Z</time></trkpt><trkpt lat="45.7765328" lon="8.964783"><ele>395.0</ele><time>2026-04-28T15:59:20.37Z</time></trkpt><trkpt lat="45.776506" lon="8.9646775"><ele>395.0</ele><time>2026-04-28T15:59:25.298Z</time></trkpt><trkpt lat="45.7764924" lon="8.9645789"><ele>395.0</ele><time>2026-04-28T15:59:29.185Z</time></trkpt><trkpt lat="45.7764841" lon="8.9644775"><ele>394.85714285714283</ele><time>2026-04-28T15:59:33.305Z</time></trkpt><trkpt lat="45.7764448" lon="8.9643888"><ele>394.7142857142857</ele><time>2026-04-28T15:59:39.356Z</time></trkpt><trkpt lat="45.7764177" lon="8.9642961"><ele>394.57142857142856</ele><time>2026-04-28T15:59:46.378Z</time></trkpt><trkpt lat="45.7764245" lon="8.9642059"><ele>394.42857142857144</ele><time>2026-04-28T15:59:53.367Z</time></trkpt><trkpt lat="45.7764171" lon="8.9641056"><ele>394.28571428571433</ele><time>2026-04-28T16:00:03.471Z</time></trkpt><trkpt lat="45.7764087" lon="8.9640109"><ele>394.14285714285717</ele><time>2026-04-28T16:00:07.49Z</time></trkpt><trkpt lat="45.776398" lon="8.9639155"><ele>394.0</ele><time>2026-04-28T16:00:10.527Z</time></trkpt><trkpt lat="45.7763834" lon="8.9638256"><ele>393.42857142857144</ele><time>2026-04-28T16:00:14.334Z</time></trkpt><trkpt lat="45.77636" lon="8.9637332"><ele>392.8571428571429</ele><time>2026-04-28T16:00:18.344Z</time></trkpt><trkpt lat="45.7763311" lon="8.9636264"><ele>392.2857142857143</ele><time>2026-04-28T16:00:22.354Z</time></trkpt><trkpt lat="45.7762864" lon="8.9635626"><ele>391.7142857142857</ele><time>2026-04-28T16:00:27.286Z</time></trkpt><trkpt lat="45.7762246" lon="8.9634967"><ele>391.1428571428571</ele><time>2026-04-28T16:00:31.291Z</time></trkpt><trkpt lat="45.7761859" lon="8.9634105"><ele>390.57142857142856</ele><time>2026-04-28T16:00:35.301Z</time></trkpt><trkpt lat="45.7761374" lon="8.9633444"><ele>390.0</ele><time>2026-04-28T16:00:44.352Z</time></trkpt><trkpt lat="45.7760839" lon="8.9632833"><ele>390.0</ele><time>2026-04-28T16:00:50.31Z</time></trkpt><trkpt lat="45.7760201" lon="8.9632503"><ele>390.0</ele><time>2026-04-28T16:00:55.247Z</time></trkpt><trkpt lat="45.7759517" lon="8.9632217"><ele>390.0</ele><time>2026-04-28T16:00:59.244Z</time></trkpt><trkpt lat="45.7758768" lon="8.9631986"><ele>390.0</ele><time>2026-04-28T16:01:03.231Z</time></trkpt><trkpt lat="45.7758068" lon="8.9632034"><ele>390.0</ele><time>2026-04-28T16:01:06.35Z</time></trkpt><trkpt lat="45.7757346" lon="8.9632045"><ele>390.0</ele><time>2026-04-28T16:01:09.33Z</time></trkpt><trkpt lat="45.7756647" lon="8.9631847"><ele>390.0</ele><time>2026-04-28T16:01:12.448Z</time></trkpt><trkpt lat="45.7755881" lon="8.9631571"><ele>390.0</ele><time>2026-04-28T16:01:16.434Z</time></trkpt><trkpt lat="45.7755296" lon="8.9631202"><ele>390.0</ele><time>2026-04-28T16:01:20.328Z</time></trkpt><trkpt lat="45.7754707" lon="8.9630568"><ele>390.0</ele><time>2026-04-28T16:01:25.289Z</time></trkpt><trkpt lat="45.7754043" lon="8.9629913"><ele>390.0</ele><time>2026-04-28T16:01:29.29Z</time></trkpt><trkpt lat="45.7753499" lon="8.9629441"><ele>390.0</ele><time>2026-04-28T16:01:33.287Z</time></trkpt><trkpt lat="45.7752882" lon="8.9629154"><ele>390.0</ele><time>2026-04-28T16:01:38.316Z</time></trkpt><trkpt lat="45.7752159" lon="8.9628749"><ele>390.0</ele><time>2026-04-28T16:01:43.288Z</time></trkpt><trkpt lat="45.775145" lon="8.9628356"><ele>390.1428571428571</ele><time>2026-04-28T16:01:47.253Z</time></trkpt><trkpt lat="45.7750747" lon="8.9628206"><ele>390.2857142857143</ele><time>2026-04-28T16:01:55.337Z</time></trkpt><trkpt lat="45.7750092" lon="8.9628066"><ele>390.42857142857144</ele><time>2026-04-28T16:02:03.412Z</time></trkpt><trkpt lat="45.7749431" lon="8.9628145"><ele>390.57142857142856</ele><time>2026-04-28T16:02:10.287Z</time></trkpt><trkpt lat="45.7748895" lon="8.9628801"><ele>390.7142857142857</ele><time>2026-04-28T16:02:15.323Z</time></trkpt><trkpt lat="45.7748513" lon="8.9629532"><ele>390.85714285714283</ele><time>2026-04-28T16:02:19.322Z</time></trkpt><trkpt lat="45.7748035" lon="8.96302"><ele>391.0</ele><time>2026-04-28T16:02:25.291Z</time></trkpt><trkpt lat="45.7747452" lon="8.9630614"><ele>390.99999999999994</ele><time>2026-04-28T16:02:38.288Z</time></trkpt><trkpt lat="45.7746843" lon="8.9631143"><ele>391.0</ele><time>2026-04-28T16:02:43.287Z</time></trkpt><trkpt lat="45.7746208" lon="8.9631395"><ele>391.0</ele><time>2026-04-28T16:02:49.353Z</time></trkpt><trkpt lat="45.7745572" lon="8.9631609"><ele>391.0</ele><time>2026-04-28T16:02:53.391Z</time></trkpt><trkpt lat="45.7744926" lon="8.9631791"><ele>391.0</ele><time>2026-04-28T16:02:59.372Z</time></trkpt><trkpt lat="45.7744375" lon="8.9632268"><ele>390.99999999999994</ele><time>2026-04-28T16:03:05.29Z</time></trkpt><trkpt lat="45.7743828" lon="8.9632906"><ele>391.0</ele><time>2026-04-28T16:03:12.381Z</time></trkpt><trkpt lat="45.7742928" lon="8.9633782"><ele>391.33333333333337</ele><time>2026-04-28T16:03:18.119Z</time></trkpt><trkpt lat="45.7742318" lon="8.9634387"><ele>391.6666666666667</ele><time>2026-04-28T16:03:24.314Z</time></trkpt><trkpt lat="45.7741177" lon="8.9635326"><ele>392.0</ele><time>2026-04-28T16:03:31.437Z</time></trkpt><trkpt lat="45.774064" lon="8.9635917"><ele>392.33333333333337</ele><time>2026-04-28T16:03:35.297Z</time></trkpt><trkpt lat="45.7740068" lon="8.9636397"><ele>392.6666666666667</ele><time>2026-04-28T16:03:41.287Z</time></trkpt><trkpt lat="45.773952" lon="8.9637049"><ele>393.0</ele><time>2026-04-28T16:03:46.296Z</time></trkpt><trkpt lat="45.7739083" lon="8.9637852"><ele>393.00000000000006</ele><time>2026-04-28T16:03:50.213Z</time></trkpt><trkpt lat="45.773861" lon="8.9638496"><ele>393.0</ele><time>2026-04-28T16:03:55.288Z</time></trkpt><trkpt lat="45.7738083" lon="8.9639124"><ele>393.0</ele><time>2026-04-28T16:04:02.222Z</time></trkpt><trkpt lat="45.7737447" lon="8.9639904"><ele>393.0</ele><time>2026-04-28T16:04:07.287Z</time></trkpt><trkpt lat="45.7736871" lon="8.9640558"><ele>393.0</ele><time>2026-04-28T16:04:09.325Z</time></trkpt><trkpt lat="45.7736288" lon="8.9640961"><ele>393.00000000000006</ele><time>2026-04-28T16:04:17.346Z</time></trkpt><trkpt lat="45.7735629" lon="8.964121"><ele>393.0</ele><time>2026-04-28T16:04:29.378Z</time></trkpt><trkpt lat="45.7734512" lon="8.9642431"><ele>393.4</ele><time>2026-04-28T16:04:36.058Z</time></trkpt><trkpt lat="45.7733899" lon="8.9642841"><ele>393.79999999999995</ele><time>2026-04-28T16:04:41.295Z</time></trkpt><trkpt lat="45.7732531" lon="8.9644091"><ele>394.2</ele><time>2026-04-28T16:04:48.231Z</time></trkpt><trkpt lat="45.7731997" lon="8.9644789"><ele>394.6</ele><time>2026-04-28T16:04:54.288Z</time></trkpt><trkpt lat="45.7730798" lon="8.9645352"><ele>395.0</ele><time>2026-04-28T16:04:59.413Z</time></trkpt><trkpt lat="45.7730171" lon="8.9645691"><ele>395.0</ele><time>2026-04-28T16:05:02.288Z</time></trkpt><trkpt lat="45.7729582" lon="8.964628"><ele>395.0</ele><time>2026-04-28T16:05:06.287Z</time></trkpt><trkpt lat="45.7729021" lon="8.9646777"><ele>395.0</ele><time>2026-04-28T16:05:11.314Z</time></trkpt><trkpt lat="45.7728471" lon="8.9647317"><ele>395.0</ele><time>2026-04-28T16:05:19.335Z</time></trkpt><trkpt lat="45.7727877" lon="8.9647739"><ele>395.0</ele><time>2026-04-28T16:05:24.418Z</time></trkpt><trkpt lat="45.7727389" lon="8.9648508"><ele>395.0</ele><time>2026-04-28T16:05:27.678Z</time></trkpt><trkpt lat="45.7726937" lon="8.9649153"><ele>395.0</ele><time>2026-04-28T16:05:34.09Z</time></trkpt><trkpt lat="45.7726517" lon="8.9649859"><ele>394.66666666666663</ele><time>2026-04-28T16:05:40.301Z</time></trkpt><trkpt lat="45.7725959" lon="8.9650314"><ele>394.3333333333333</ele><time>2026-04-28T16:05:46.266Z</time></trkpt><trkpt lat="45.7725379" lon="8.9650714"><ele>394.0</ele><time>2026-04-28T16:05:51.509Z</time></trkpt><trkpt lat="45.7724679" lon="8.9651625"><ele>393.66666666666663</ele><time>2026-04-28T16:06:00.012Z</time></trkpt><trkpt lat="45.7724215" lon="8.9652259"><ele>393.3333333333333</ele><time>2026-04-28T16:06:03.098Z</time></trkpt><trkpt lat="45.7723228" lon="8.9653255"><ele>393.0</ele><time>2026-04-28T16:06:14.737Z</time></trkpt><trkpt lat="45.7722634" lon="8.9653857"><ele>393.0</ele><time>2026-04-28T16:06:16.872Z</time></trkpt><trkpt lat="45.7722013" lon="8.965422"><ele>393.0</ele><time>2026-04-28T16:06:23.088Z</time></trkpt><trkpt lat="45.7721023" lon="8.9654866"><ele>393.0</ele><time>2026-04-28T16:06:28.306Z</time></trkpt><trkpt lat="45.7720342" lon="8.9655441"><ele>393.0</ele><time>2026-04-28T16:06:33.859Z</time></trkpt><trkpt lat="45.7719654" lon="8.965578"><ele>393.0</ele><time>2026-04-28T16:06:37.09Z</time></trkpt><trkpt lat="45.7719039" lon="8.9656028"><ele>393.0</ele><time>2026-04-28T16:06:41.367Z</time></trkpt><trkpt lat="45.7718332" lon="8.9656281"><ele>393.42857142857144</ele><time>2026-04-28T16:06:46.373Z</time></trkpt><trkpt lat="45.7717666" lon="8.9656381"><ele>393.8571428571429</ele><time>2026-04-28T16:06:51.212Z</time></trkpt><trkpt lat="45.771699" lon="8.9656439"><ele>394.28571428571433</ele><time>2026-04-28T16:06:55.39Z</time></trkpt><trkpt lat="45.7716348" lon="8.9656557"><ele>394.7142857142857</ele><time>2026-04-28T16:07:01.23Z</time></trkpt><trkpt lat="45.7715745" lon="8.9656202"><ele>395.1428571428571</ele><time>2026-04-28T16:07:06.344Z</time></trkpt><trkpt lat="45.7715045" lon="8.9656229"><ele>395.5714285714286</ele><time>2026-04-28T16:07:11.39Z</time></trkpt><trkpt lat="45.7714319" lon="8.9656313"><ele>396.0</ele><time>2026-04-28T16:07:16.231Z</time></trkpt><trkpt lat="45.7713599" lon="8.9656688"><ele>396.0</ele><time>2026-04-28T16:07:20.32Z</time></trkpt><trkpt lat="45.7712966" lon="8.9657228"><ele>396.0</ele><time>2026-04-28T16:07:26.531Z</time></trkpt><trkpt lat="45.7712412" lon="8.9657732"><ele>396.0</ele><time>2026-04-28T16:07:33.906Z</time></trkpt><trkpt lat="45.7711749" lon="8.965825"><ele>396.0</ele><time>2026-04-28T16:07:41.273Z</time></trkpt><trkpt lat="45.771122" lon="8.965903"><ele>396.0</ele><time>2026-04-28T16:07:47.372Z</time></trkpt><trkpt lat="45.7710618" lon="8.9659614"><ele>396.0</ele><time>2026-04-28T16:07:53.285Z</time></trkpt><trkpt lat="45.7709906" lon="8.9659802"><ele>396.0</ele><time>2026-04-28T16:07:59.208Z</time></trkpt><trkpt lat="45.7709261" lon="8.9660163"><ele>396.3333333333333</ele><time>2026-04-28T16:08:07.294Z</time></trkpt><trkpt lat="45.7708614" lon="8.966051"><ele>396.66666666666663</ele><time>2026-04-28T16:08:13.285Z</time></trkpt><trkpt lat="45.7708081" lon="8.9661425"><ele>397.0</ele><time>2026-04-28T16:08:18.293Z</time></trkpt><trkpt lat="45.7707719" lon="8.9662334"><ele>397.3333333333333</ele><time>2026-04-28T16:08:23.285Z</time></trkpt><trkpt lat="45.770724" lon="8.966334"><ele>397.66666666666663</ele><time>2026-04-28T16:08:27.35Z</time></trkpt><trkpt lat="45.7706734" lon="8.966403"><ele>398.0</ele><time>2026-04-28T16:08:32.287Z</time></trkpt><trkpt lat="45.7706179" lon="8.9664797"><ele>398.0</ele><time>2026-04-28T16:08:37.313Z</time></trkpt><trkpt lat="45.7705848" lon="8.9665618"><ele>398.0</ele><time>2026-04-28T16:08:44.412Z</time></trkpt><trkpt lat="45.770533" lon="8.9666242"><ele>398.0</ele><time>2026-04-28T16:08:50.286Z</time></trkpt><trkpt lat="45.770413" lon="8.9667298"><ele>398.0</ele><time>2026-04-28T16:08:58.286Z</time></trkpt><trkpt lat="45.7703401" lon="8.9667868"><ele>398.0</ele><time>2026-04-28T16:09:04.405Z</time></trkpt><trkpt lat="45.7702332" lon="8.9668978"><ele>398.3333333333333</ele><time>2026-04-28T16:09:07.888Z</time></trkpt><trkpt lat="45.7701875" lon="8.9669659"><ele>398.66666666666663</ele><time>2026-04-28T16:09:12.45Z</time></trkpt><trkpt lat="45.7701368" lon="8.9670424"><ele>399.0</ele><time>2026-04-28T16:09:20.29Z</time></trkpt><trkpt lat="45.7700723" lon="8.9671027"><ele>399.33333333333337</ele><time>2026-04-28T16:09:26.35Z</time></trkpt><trkpt lat="45.7700099" lon="8.9671432"><ele>399.6666666666667</ele><time>2026-04-28T16:09:31.288Z</time></trkpt><trkpt lat="45.7699447" lon="8.9671335"><ele>400.0</ele><time>2026-04-28T16:09:41.358Z</time></trkpt><trkpt lat="45.7698237" lon="8.9671475"><ele>400.00000000000006</ele><time>2026-04-28T16:09:48.395Z</time></trkpt><trkpt lat="45.7697571" lon="8.967155"><ele>400.0</ele><time>2026-04-28T16:09:53.287Z</time></trkpt><trkpt lat="45.7696858" lon="8.9671719"><ele>400.0</ele><time>2026-04-28T16:10:00.727Z</time></trkpt><trkpt lat="45.7696122" lon="8.9671819"><ele>400.0</ele><time>2026-04-28T16:10:08.05Z</time></trkpt><trkpt lat="45.7695389" lon="8.9671892"><ele>400.0</ele><time>2026-04-28T16:10:13.322Z</time></trkpt><trkpt lat="45.7694509" lon="8.967184"><ele>400.00000000000006</ele><time>2026-04-28T16:10:19.288Z</time></trkpt><trkpt lat="45.7693768" lon="8.9671729"><ele>400.0</ele><time>2026-04-28T16:10:25.289Z</time></trkpt><trkpt lat="45.7693115" lon="8.9671813"><ele>399.83333333333337</ele><time>2026-04-28T16:10:32.389Z</time></trkpt><trkpt lat="45.7691811" lon="8.9671791"><ele>399.6666666666667</ele><time>2026-04-28T16:10:42.029Z</time></trkpt><trkpt lat="45.7691177" lon="8.9671585"><ele>399.5</ele><time>2026-04-28T16:10:44.18Z</time></trkpt><trkpt lat="45.7690534" lon="8.9671747"><ele>399.33333333333337</ele><time>2026-04-28T16:10:49.296Z</time></trkpt><trkpt lat="45.7689905" lon="8.967149"><ele>399.1666666666667</ele><time>2026-04-28T16:10:51.287Z</time></trkpt><trkpt lat="45.7689384" lon="8.967091"><ele>399.0</ele><time>2026-04-28T16:10:52.287Z</time></trkpt><trkpt lat="45.7688773" lon="8.9670609"><ele>399.0</ele><time>2026-04-28T16:10:55.328Z</time></trkpt><trkpt lat="45.7688091" lon="8.9670383"><ele>399.0</ele><time>2026-04-28T16:10:59.286Z</time></trkpt><trkpt lat="45.7687363" lon="8.9670237"><ele>399.0</ele><time>2026-04-28T16:11:04.303Z</time></trkpt><trkpt lat="45.7686606" lon="8.9670105"><ele>399.0</ele><time>2026-04-28T16:11:09.282Z</time></trkpt><trkpt lat="45.7685977" lon="8.9669886"><ele>399.0</ele><time>2026-04-28T16:11:13.354Z</time></trkpt><trkpt lat="45.7685345" lon="8.9669756"><ele>399.0</ele><time>2026-04-28T16:11:18.289Z</time></trkpt><trkpt lat="45.7684643" lon="8.9669608"><ele>399.0</ele><time>2026-04-28T16:11:22.226Z</time></trkpt><trkpt lat="45.768388" lon="8.9669293"><ele>398.0</ele><time>2026-04-28T16:11:26.3Z</time></trkpt><trkpt lat="45.7683246" lon="8.9668974"><ele>397.0</ele><time>2026-04-28T16:11:30.309Z</time></trkpt><trkpt lat="45.7682613" lon="8.966887"><ele>396.0</ele><time>2026-04-28T16:11:34.319Z</time></trkpt><trkpt lat="45.768186" lon="8.9668619"><ele>395.0</ele><time>2026-04-28T16:11:39.309Z</time></trkpt><trkpt lat="45.7681183" lon="8.966818"><ele>394.0</ele><time>2026-04-28T16:11:44.289Z</time></trkpt><trkpt lat="45.7680493" lon="8.9667817"><ele>393.0</ele><time>2026-04-28T16:11:49.327Z</time></trkpt><trkpt lat="45.7679821" lon="8.9667733"><ele>392.0</ele><time>2026-04-28T16:11:55.429Z</time></trkpt><trkpt lat="45.7679072" lon="8.9667882"><ele>392.0</ele><time>2026-04-28T16:12:00.629Z</time></trkpt><trkpt lat="45.7678426" lon="8.9667783"><ele>392.0</ele><time>2026-04-28T16:12:04.81Z</time></trkpt><trkpt lat="45.7677727" lon="8.966758"><ele>392.0</ele><time>2026-04-28T16:12:11.164Z</time></trkpt><trkpt lat="45.7677047" lon="8.9667389"><ele>392.0</ele><time>2026-04-28T16:12:19.343Z</time></trkpt><trkpt lat="45.7676394" lon="8.9667188"><ele>392.0</ele><time>2026-04-28T16:12:29.625Z</time></trkpt><trkpt lat="45.7675763" lon="8.966716"><ele>392.0</ele><time>2026-04-28T16:12:35.974Z</time></trkpt><trkpt lat="45.767504" lon="8.9667267"><ele>392.0</ele><time>2026-04-28T16:12:42.19Z</time></trkpt><trkpt lat="45.7673844" lon="8.9667397"><ele>392.40000000000003</ele><time>2026-04-28T16:12:48.328Z</time></trkpt><trkpt lat="45.7673216" lon="8.9667284"><ele>392.8</ele><time>2026-04-28T16:12:53.287Z</time></trkpt><trkpt lat="45.7672522" lon="8.9666856"><ele>393.2</ele><time>2026-04-28T16:12:59.289Z</time></trkpt><trkpt lat="45.7671439" lon="8.9666186"><ele>393.6</ele><time>2026-04-28T16:13:06.314Z</time></trkpt><trkpt lat="45.7670803" lon="8.9665616"><ele>394.0</ele><time>2026-04-28T16:13:12.357Z</time></trkpt><trkpt lat="45.7669303" lon="8.9663513"><ele>394.2857142857143</ele><time>2026-04-28T16:13:32.304Z</time></trkpt><trkpt lat="45.7668743" lon="8.9662864"><ele>394.57142857142856</ele><time>2026-04-28T16:13:36.289Z</time></trkpt><trkpt lat="45.7668254" lon="8.9662273"><ele>394.8571428571429</ele><time>2026-04-28T16:13:42.29Z</time></trkpt><trkpt lat="45.7667758" lon="8.9661596"><ele>395.1428571428571</ele><time>2026-04-28T16:13:48.238Z</time></trkpt><trkpt lat="45.7667234" lon="8.9661011"><ele>395.4285714285714</ele><time>2026-04-28T16:13:54.29Z</time></trkpt><trkpt lat="45.7666582" lon="8.9660265"><ele>395.7142857142857</ele><time>2026-04-28T16:13:59.287Z</time></trkpt><trkpt lat="45.7666069" lon="8.9659663"><ele>396.0</ele><time>2026-04-28T16:14:01.309Z</time></trkpt><trkpt lat="45.766571" lon="8.9658878"><ele>396.8571428571429</ele><time>2026-04-28T16:14:07.237Z</time></trkpt><trkpt lat="45.7665213" lon="8.965827"><ele>397.71428571428567</ele><time>2026-04-28T16:14:12.304Z</time></trkpt><trkpt lat="45.7664657" lon="8.965766"><ele>398.57142857142856</ele><time>2026-04-28T16:14:19.277Z</time></trkpt><trkpt lat="45.7663899" lon="8.9657229"><ele>399.42857142857144</ele><time>2026-04-28T16:14:26.289Z</time></trkpt><trkpt lat="45.7663147" lon="8.9656999"><ele>400.28571428571433</ele><time>2026-04-28T16:14:28.264Z</time></trkpt><trkpt lat="45.7662516" lon="8.9657011"><ele>401.1428571428571</ele><time>2026-04-28T16:14:33.289Z</time></trkpt><trkpt lat="45.7661847" lon="8.9657194"><ele>402.0</ele><time>2026-04-28T16:14:39.215Z</time></trkpt><trkpt lat="45.7660854" lon="8.9657147"><ele>402.0</ele><time>2026-04-28T16:14:49.652Z</time></trkpt><trkpt lat="45.7660152" lon="8.9657063"><ele>402.0</ele><time>2026-04-28T16:14:51.693Z</time></trkpt><trkpt lat="45.7659341" lon="8.9657089"><ele>402.0</ele><time>2026-04-28T16:14:58.996Z</time></trkpt><trkpt lat="45.7658568" lon="8.9656971"><ele>402.0</ele><time>2026-04-28T16:15:04.22Z</time></trkpt><trkpt lat="45.7657973" lon="8.9656545"><ele>402.0</ele><time>2026-04-28T16:15:10.41Z</time></trkpt><trkpt lat="45.765738" lon="8.9656057"><ele>402.0</ele><time>2026-04-28T16:15:13.551Z</time></trkpt><trkpt lat="45.7656731" lon="8.9655705"><ele>402.0</ele><time>2026-04-28T16:15:17.694Z</time></trkpt><trkpt lat="45.7656065" lon="8.9655336"><ele>402.0</ele><time>2026-04-28T16:15:22.974Z</time></trkpt><trkpt lat="45.7655427" lon="8.9654632"><ele>402.0</ele><time>2026-04-28T16:15:28.174Z</time></trkpt><trkpt lat="45.7654952" lon="8.9653764"><ele>402.0</ele><time>2026-04-28T16:15:32.34Z</time></trkpt><trkpt lat="45.7654559" lon="8.9652851"><ele>402.0</ele><time>2026-04-28T16:15:36.287Z</time></trkpt><trkpt lat="45.7654006" lon="8.9652214"><ele>402.0</ele><time>2026-04-28T16:15:41.239Z</time></trkpt><trkpt lat="45.7653554" lon="8.9651505"><ele>402.0</ele><time>2026-04-28T16:15:45.332Z</time></trkpt><trkpt lat="45.7653052" lon="8.9650806"><ele>402.0</ele><time>2026-04-28T16:15:49.342Z</time></trkpt><trkpt lat="45.7652576" lon="8.9650136"><ele>402.1428571428571</ele><time>2026-04-28T16:15:54.383Z</time></trkpt><trkpt lat="45.765198" lon="8.9649414"><ele>402.28571428571433</ele><time>2026-04-28T16:15:59.297Z</time></trkpt><trkpt lat="45.7651501" lon="8.9648795"><ele>402.42857142857144</ele><time>2026-04-28T16:16:03.321Z</time></trkpt><trkpt lat="45.7651011" lon="8.9648172"><ele>402.57142857142856</ele><time>2026-04-28T16:16:08.29Z</time></trkpt><trkpt lat="45.7650676" lon="8.96473"><ele>402.71428571428567</ele><time>2026-04-28T16:16:14.469Z</time></trkpt><trkpt lat="45.7650441" lon="8.9646304"><ele>402.8571428571429</ele><time>2026-04-28T16:16:17.556Z</time></trkpt><trkpt lat="45.765023" lon="8.964541"><ele>403.0</ele><time>2026-04-28T16:16:21.643Z</time></trkpt><trkpt lat="45.7650053" lon="8.964432"><ele>403.0</ele><time>2026-04-28T16:16:25.82Z</time></trkpt><trkpt lat="45.7649999" lon="8.9643325"><ele>403.0</ele><time>2026-04-28T16:16:29.15Z</time></trkpt><trkpt lat="45.7649876" lon="8.9642309"><ele>403.0</ele><time>2026-04-28T16:16:34.24Z</time></trkpt><trkpt lat="45.7649562" lon="8.9641239"><ele>403.0</ele><time>2026-04-28T16:16:41.41Z</time></trkpt><trkpt lat="45.7649211" lon="8.9640461"><ele>403.0</ele><time>2026-04-28T16:16:47.286Z</time></trkpt><trkpt lat="45.7648744" lon="8.9639822"><ele>403.0</ele><time>2026-04-28T16:16:52.354Z</time></trkpt><trkpt lat="45.7648341" lon="8.9639057"><ele>403.0</ele><time>2026-04-28T16:17:00.344Z</time></trkpt><trkpt lat="45.7647783" lon="8.9638615"><ele>404.6666666666667</ele><time>2026-04-28T16:17:06.463Z</time></trkpt><trkpt lat="45.7647195" lon="8.9638127"><ele>406.33333333333337</ele><time>2026-04-28T16:17:14.778Z</time></trkpt><trkpt lat="45.7646189" lon="8.9638169"><ele>408.0</ele><time>2026-04-28T16:17:22.972Z</time></trkpt><trkpt lat="45.7645559" lon="8.9638668"><ele>409.66666666666663</ele><time>2026-04-28T16:17:30.09Z</time></trkpt><trkpt lat="45.7644946" lon="8.9639215"><ele>411.3333333333333</ele><time>2026-04-28T16:17:33.21Z</time></trkpt><trkpt lat="45.7644393" lon="8.9639718"><ele>413.0</ele><time>2026-04-28T16:17:36.368Z</time></trkpt><trkpt lat="45.7643889" lon="8.9640504"><ele>412.7142857142857</ele><time>2026-04-28T16:17:40.417Z</time></trkpt><trkpt lat="45.7643318" lon="8.964103"><ele>412.42857142857144</ele><time>2026-04-28T16:17:45.19Z</time></trkpt><trkpt lat="45.7642689" lon="8.964157"><ele>412.1428571428571</ele><time>2026-04-28T16:17:49.309Z</time></trkpt><trkpt lat="45.7642129" lon="8.9642191"><ele>411.8571428571429</ele><time>2026-04-28T16:17:53.305Z</time></trkpt><trkpt lat="45.7641524" lon="8.9642736"><ele>411.57142857142856</ele><time>2026-04-28T16:17:57.315Z</time></trkpt><trkpt lat="45.7640794" lon="8.96433"><ele>411.2857142857143</ele><time>2026-04-28T16:18:03.255Z</time></trkpt><trkpt lat="45.7640056" lon="8.9643649"><ele>411.0</ele><time>2026-04-28T16:18:07.436Z</time></trkpt><trkpt lat="45.7639408" lon="8.9644007"><ele>410.7142857142857</ele><time>2026-04-28T16:18:11.292Z</time></trkpt><trkpt lat="45.7638753" lon="8.9644341"><ele>410.42857142857144</ele><time>2026-04-28T16:18:16.212Z</time></trkpt><trkpt lat="45.7638158" lon="8.964469"><ele>410.1428571428571</ele><time>2026-04-28T16:18:20.289Z</time></trkpt><trkpt lat="45.7637574" lon="8.9645062"><ele>409.8571428571429</ele><time>2026-04-28T16:18:27.332Z</time></trkpt><trkpt lat="45.7636914" lon="8.9645551"><ele>409.5714285714286</ele><time>2026-04-28T16:18:33.369Z</time></trkpt><trkpt lat="45.7636346" lon="8.9645955"><ele>409.2857142857143</ele><time>2026-04-28T16:18:37.49Z</time></trkpt><trkpt lat="45.7635659" lon="8.9646516"><ele>409.0</ele><time>2026-04-28T16:18:41.664Z</time></trkpt><trkpt lat="45.763502" lon="8.9647057"><ele>409.0</ele><time>2026-04-28T16:18:45.808Z</time></trkpt><trkpt lat="45.7634463" lon="8.9647529"><ele>409.0</ele><time>2026-04-28T16:18:49.962Z</time></trkpt><trkpt lat="45.7633882" lon="8.9648101"><ele>409.0</ele><time>2026-04-28T16:18:57.349Z</time></trkpt><trkpt lat="45.7633443" lon="8.9648757"><ele>409.0</ele><time>2026-04-28T16:19:11.326Z</time></trkpt><trkpt lat="45.7632592" lon="8.9649208"><ele>409.0</ele><time>2026-04-28T16:19:12.287Z</time></trkpt><trkpt lat="45.7631939" lon="8.9649485"><ele>409.0</ele><time>2026-04-28T16:19:17.287Z</time></trkpt><trkpt lat="45.7631256" lon="8.9649775"><ele>409.0</ele><time>2026-04-28T16:19:24.29Z</time></trkpt><trkpt lat="45.7630841" lon="8.9650536"><ele>408.00000000000006</ele><time>2026-04-28T16:19:35.517Z</time></trkpt><trkpt lat="45.7631051" lon="8.965145"><ele>407.0</ele><time>2026-04-28T16:19:44.946Z</time></trkpt><trkpt lat="45.7631254" lon="8.9652613"><ele>406.0</ele><time>2026-04-28T16:19:50.15Z</time></trkpt><trkpt lat="45.7631436" lon="8.9653554"><ele>405.0</ele><time>2026-04-28T16:19:57.363Z</time></trkpt><trkpt lat="45.7631583" lon="8.9655162"><ele>404.00000000000006</ele><time>2026-04-28T16:20:06.778Z</time></trkpt><trkpt lat="45.7631191" lon="8.9656006"><ele>403.0</ele><time>2026-04-28T16:20:13.973Z</time></trkpt><trkpt lat="45.7630754" lon="8.9656761"><ele>403.0</ele><time>2026-04-28T16:20:20.242Z</time></trkpt><trkpt lat="45.7629937" lon="8.9657784"><ele>403.0</ele><time>2026-04-28T16:20:25.388Z</time></trkpt><trkpt lat="45.7629361" lon="8.96582"><ele>403.0</ele><time>2026-04-28T16:20:29.348Z</time></trkpt><trkpt lat="45.7628319" lon="8.9658879"><ele>403.0</ele><time>2026-04-28T16:20:37.391Z</time></trkpt><trkpt lat="45.7627703" lon="8.9659352"><ele>403.0</ele><time>2026-04-28T16:20:43.325Z</time></trkpt><trkpt lat="45.7626479" lon="8.9660612"><ele>403.0</ele><time>2026-04-28T16:20:52.392Z</time></trkpt><trkpt lat="45.7625847" lon="8.9661494"><ele>403.0</ele><time>2026-04-28T16:20:56.51Z</time></trkpt><trkpt lat="45.7624714" lon="8.9662265"><ele>403.0</ele><time>2026-04-28T16:21:01.583Z</time></trkpt><trkpt lat="45.7623646" lon="8.966344"><ele>403.0</ele><time>2026-04-28T16:21:11.288Z</time></trkpt><trkpt lat="45.7623146" lon="8.9664021"><ele>403.0</ele><time>2026-04-28T16:21:13.342Z</time></trkpt><trkpt lat="45.7622494" lon="8.9664399"><ele>403.0</ele><time>2026-04-28T16:21:19.127Z</time></trkpt><trkpt lat="45.7621873" lon="8.9664857"><ele>403.0</ele><time>2026-04-28T16:21:26.38Z</time></trkpt><trkpt lat="45.7621232" lon="8.9665143"><ele>403.0</ele><time>2026-04-28T16:21:33.288Z</time></trkpt><trkpt lat="45.7620394" lon="8.9665927"><ele>403.0</ele><time>2026-04-28T16:21:43.288Z</time></trkpt><trkpt lat="45.7619842" lon="8.9666609"><ele>403.0</ele><time>2026-04-28T16:21:45.268Z</time></trkpt><trkpt lat="45.7619408" lon="8.9667325"><ele>403.0</ele><time>2026-04-28T16:21:53.327Z</time></trkpt><trkpt lat="45.761911" lon="8.9668136"><ele>403.0</ele><time>2026-04-28T16:22:00.317Z</time></trkpt><trkpt lat="45.7619096" lon="8.9669193"><ele>401.79999999999995</ele><time>2026-04-28T16:22:09.25Z</time></trkpt><trkpt lat="45.7619131" lon="8.9670681"><ele>400.6</ele><time>2026-04-28T16:22:14.391Z</time></trkpt><trkpt lat="45.7619311" lon="8.9671575"><ele>399.4</ele><time>2026-04-28T16:22:19.335Z</time></trkpt><trkpt lat="45.7619486" lon="8.9673711"><ele>398.20000000000005</ele><time>2026-04-28T16:22:28.499Z</time></trkpt><trkpt lat="45.7619716" lon="8.9674681"><ele>397.0</ele><time>2026-04-28T16:22:35.196Z</time></trkpt><trkpt lat="45.7620519" lon="8.9675888"><ele>396.33333333333337</ele><time>2026-04-28T16:22:40.301Z</time></trkpt><trkpt lat="45.7621056" lon="8.9676543"><ele>395.6666666666667</ele><time>2026-04-28T16:22:44.256Z</time></trkpt><trkpt lat="45.7621539" lon="8.9677161"><ele>395.0</ele><time>2026-04-28T16:22:50.728Z</time></trkpt><trkpt lat="45.762211" lon="8.9677672"><ele>394.33333333333337</ele><time>2026-04-28T16:22:55.974Z</time></trkpt><trkpt lat="45.7622497" lon="8.9678489"><ele>393.6666666666667</ele><time>2026-04-28T16:23:07.34Z</time></trkpt><trkpt lat="45.7622828" lon="8.9679316"><ele>393.0</ele><time>2026-04-28T16:23:16.287Z</time></trkpt><trkpt lat="45.7623433" lon="8.9680688"><ele>393.0</ele><time>2026-04-28T16:23:31.287Z</time></trkpt><trkpt lat="45.7623989" lon="8.9681369"><ele>393.0</ele><time>2026-04-28T16:23:32.25Z</time></trkpt><trkpt lat="45.7624577" lon="8.9681875"><ele>393.0</ele><time>2026-04-28T16:23:38.287Z</time></trkpt><trkpt lat="45.7625806" lon="8.9682215"><ele>393.0</ele><time>2026-04-28T16:23:44.346Z</time></trkpt><trkpt lat="45.762648" lon="8.9682587"><ele>393.0</ele><time>2026-04-28T16:23:48.288Z</time></trkpt><trkpt lat="45.7627459" lon="8.9683662"><ele>393.0</ele><time>2026-04-28T16:24:00.288Z</time></trkpt><trkpt lat="45.7628064" lon="8.9684119"><ele>393.0</ele><time>2026-04-28T16:24:02.333Z</time></trkpt><trkpt lat="45.7628562" lon="8.9684747"><ele>393.0</ele><time>2026-04-28T16:24:12.299Z</time></trkpt><trkpt lat="45.7628286" lon="8.968609"><ele>393.0</ele><time>2026-04-28T16:24:24.769Z</time></trkpt><trkpt lat="45.7628058" lon="8.9687098"><ele>393.0</ele><time>2026-04-28T16:24:26.753Z</time></trkpt><trkpt lat="45.7628011" lon="8.9688046"><ele>393.0</ele><time>2026-04-28T16:24:34.009Z</time></trkpt><trkpt lat="45.7627271" lon="8.9689347"><ele>392.3333333333333</ele><time>2026-04-28T16:24:41.511Z</time></trkpt><trkpt lat="45.7626763" lon="8.9690087"><ele>391.66666666666663</ele><time>2026-04-28T16:24:47.237Z</time></trkpt><trkpt lat="45.7626356" lon="8.9690795"><ele>391.0</ele><time>2026-04-28T16:24:53.878Z</time></trkpt><trkpt lat="45.7625636" lon="8.9692159"><ele>390.3333333333333</ele><time>2026-04-28T16:25:04.952Z</time></trkpt><trkpt lat="45.7625199" lon="8.9692859"><ele>389.66666666666663</ele><time>2026-04-28T16:25:06.288Z</time></trkpt><trkpt lat="45.7624708" lon="8.9693716"><ele>389.0</ele><time>2026-04-28T16:25:11.305Z</time></trkpt><trkpt lat="45.7624114" lon="8.9694379"><ele>389.0</ele><time>2026-04-28T16:25:15.315Z</time></trkpt><trkpt lat="45.7623609" lon="8.9695066"><ele>389.0</ele><time>2026-04-28T16:25:18.755Z</time></trkpt><trkpt lat="45.7623216" lon="8.9695834"><ele>389.0</ele><time>2026-04-28T16:25:24.027Z</time></trkpt><trkpt lat="45.7622575" lon="8.9696295"><ele>389.0</ele><time>2026-04-28T16:25:33.303Z</time></trkpt><trkpt lat="45.7621944" lon="8.9696274"><ele>389.0</ele><time>2026-04-28T16:25:39.287Z</time></trkpt><trkpt lat="45.7621304" lon="8.9696197"><ele>389.0</ele><time>2026-04-28T16:25:45.599Z</time></trkpt><trkpt lat="45.7620652" lon="8.9696003"><ele>389.0</ele><time>2026-04-28T16:25:52.004Z</time></trkpt><trkpt lat="45.7620011" lon="8.9695796"><ele>387.75</ele><time>2026-04-28T16:26:00.549Z</time></trkpt><trkpt lat="45.7618506" lon="8.9695817"><ele>386.5</ele><time>2026-04-28T16:26:12.265Z</time></trkpt><trkpt lat="45.7616681" lon="8.9695943"><ele>385.25</ele><time>2026-04-28T16:26:25.319Z</time></trkpt><trkpt lat="45.761603" lon="8.9696195"><ele>384.0</ele><time>2026-04-28T16:26:30.231Z</time></trkpt><trkpt lat="45.7614827" lon="8.9696233"><ele>384.0</ele><time>2026-04-28T16:26:37.35Z</time></trkpt><trkpt lat="45.7614131" lon="8.9695861"><ele>384.0</ele><time>2026-04-28T16:26:41.359Z</time></trkpt><trkpt lat="45.7613479" lon="8.9696067"><ele>384.0</ele><time>2026-04-28T16:26:50.295Z</time></trkpt><trkpt lat="45.7612369" lon="8.9696714"><ele>384.0</ele><time>2026-04-28T16:26:59.995Z</time></trkpt><trkpt lat="45.7611642" lon="8.9697166"><ele>384.0</ele><time>2026-04-28T16:27:03.288Z</time></trkpt><trkpt lat="45.7610515" lon="8.9698038"><ele>383.85714285714283</ele><time>2026-04-28T16:27:10.235Z</time></trkpt><trkpt lat="45.7609914" lon="8.9698549"><ele>383.7142857142857</ele><time>2026-04-28T16:27:15.251Z</time></trkpt><trkpt lat="45.7609294" lon="8.9699532"><ele>383.57142857142856</ele><time>2026-04-28T16:27:19.518Z</time></trkpt><trkpt lat="45.7608698" lon="8.9700103"><ele>383.42857142857144</ele><time>2026-04-28T16:27:23.685Z</time></trkpt><trkpt lat="45.7608029" lon="8.9700374"><ele>383.2857142857143</ele><time>2026-04-28T16:27:28.808Z</time></trkpt><trkpt lat="45.7607383" lon="8.9700637"><ele>383.1428571428571</ele><time>2026-04-28T16:27:32.88Z</time></trkpt><trkpt lat="45.7606605" lon="8.9700549"><ele>383.0</ele><time>2026-04-28T16:27:37.946Z</time></trkpt><trkpt lat="45.7605896" lon="8.9700401"><ele>383.0</ele><time>2026-04-28T16:27:43.377Z</time></trkpt><trkpt lat="45.7605218" lon="8.9700266"><ele>383.0</ele><time>2026-04-28T16:27:48.394Z</time></trkpt><trkpt lat="45.7604611" lon="8.9700026"><ele>383.0</ele><time>2026-04-28T16:27:54.295Z</time></trkpt><trkpt lat="45.7603953" lon="8.9699834"><ele>383.0</ele><time>2026-04-28T16:28:00.919Z</time></trkpt><trkpt lat="45.7603334" lon="8.9699648"><ele>383.0</ele><time>2026-04-28T16:28:08.318Z</time></trkpt><trkpt lat="45.7602707" lon="8.9699264"><ele>383.0</ele><time>2026-04-28T16:28:16.288Z</time></trkpt><trkpt lat="45.7601706" lon="8.9698732"><ele>383.0</ele><time>2026-04-28T16:28:24.255Z</time></trkpt><trkpt lat="45.7601032" lon="8.9698283"><ele>382.5</ele><time>2026-04-28T16:28:27.286Z</time></trkpt><trkpt lat="45.7600515" lon="8.9697504"><ele>382.0</ele><time>2026-04-28T16:28:31.346Z</time></trkpt><trkpt lat="45.760001" lon="8.9696684"><ele>381.5</ele><time>2026-04-28T16:28:35.356Z</time></trkpt><trkpt lat="45.75996" lon="8.9695769"><ele>381.0</ele><time>2026-04-28T16:28:39.366Z</time></trkpt><trkpt lat="45.7599256" lon="8.9694991"><ele>380.5</ele><time>2026-04-28T16:28:42.372Z</time></trkpt><trkpt lat="45.7598929" lon="8.9693961"><ele>380.0</ele><time>2026-04-28T16:28:46.287Z</time></trkpt><trkpt lat="45.7598836" lon="8.9692817"><ele>380.2857142857143</ele><time>2026-04-28T16:28:50.365Z</time></trkpt><trkpt lat="45.7598737" lon="8.9691824"><ele>380.57142857142856</ele><time>2026-04-28T16:28:55.291Z</time></trkpt><trkpt lat="45.7598423" lon="8.9691018"><ele>380.8571428571429</ele><time>2026-04-28T16:29:01.296Z</time></trkpt><trkpt lat="45.7598036" lon="8.9690221"><ele>381.1428571428571</ele><time>2026-04-28T16:29:08.312Z</time></trkpt><trkpt lat="45.7597908" lon="8.9689199"><ele>381.4285714285714</ele><time>2026-04-28T16:29:15.231Z</time></trkpt><trkpt lat="45.7597857" lon="8.9688281"><ele>381.7142857142857</ele><time>2026-04-28T16:29:21.413Z</time></trkpt><trkpt lat="45.7597617" lon="8.9687399"><ele>382.0</ele><time>2026-04-28T16:29:28.288Z</time></trkpt><trkpt lat="45.7597289" lon="8.9686465"><ele>382.0</ele><time>2026-04-28T16:29:35.391Z</time></trkpt><trkpt lat="45.7596856" lon="8.9685718"><ele>382.0</ele><time>2026-04-28T16:29:42.288Z</time></trkpt><trkpt lat="45.75965" lon="8.9684919"><ele>382.0</ele><time>2026-04-28T16:29:52.315Z</time></trkpt><trkpt lat="45.7595867" lon="8.9684817"><ele>382.0</ele><time>2026-04-28T16:30:01.136Z</time></trkpt><trkpt lat="45.7596073" lon="8.968226"><ele>382.0</ele><time>2026-04-28T16:30:05.293Z</time></trkpt><trkpt lat="45.7595465" lon="8.9682773"><ele>382.0</ele><time>2026-04-28T16:30:33.286Z</time></trkpt><trkpt lat="45.7594767" lon="8.9684067"><ele>382.0</ele><time>2026-04-28T16:30:35.287Z</time></trkpt><trkpt lat="45.7594567" lon="8.9683183"><ele>385.0</ele><time>2026-04-28T16:30:38.287Z</time></trkpt></trkseg></trk></gpx>